Time;durP1;ratioP1;P1;durP2;ratioP2;P2;SDS_P1;SDS_P2;PMS_P1;PMS_P2;Temp;Humidity;BMP_temperature;BMP_pressure;BME280_temperature;BME280_humidity;BME280_pressure;Samples;Min_cycle;Max_cycle;Signal;HPM_P1;HPM_P2
2021/10/29 00:02:27;;;;;;;7.35;4.53;;;9.20;65.30;;;;;;2470198;52;21872;-67
2021/10/29 00:04:58;;;;;;;7.68;4.55;;;9.20;65.20;;;;;;2345712;53;21024;-68
2021/10/29 00:07:24;;;;;;;9.00;4.35;;;9.20;65.10;;;;;;2348558;53;21434;-67
2021/10/29 00:09:51;;;;;;;6.80;4.25;;;9.20;65.10;;;;;;2333873;53;20964;-68
2021/10/29 00:12:18;;;;;;;6.07;3.85;;;9.10;65.10;;;;;;2339268;53;20977;-67
2021/10/29 00:14:46;;;;;;;8.18;4.68;;;9.10;65.20;;;;;;2346990;53;20997;-68
2021/10/29 00:17:12;;;;;;;8.40;4.18;;;9.10;65.20;;;;;;2368792;53;20942;-70
2021/10/29 00:19:42;;;;;;;5.97;4.05;;;9.10;65.20;;;;;;2369675;53;20954;-68
2021/10/29 00:22:08;;;;;;;7.18;3.97;;;9.00;65.20;;;;;;2369239;53;20946;-68
2021/10/29 00:24:34;;;;;;;5.65;3.60;;;9.00;65.20;;;;;;2369533;53;20950;-68
2021/10/29 00:27:01;;;;;;;7.22;4.60;;;9.00;65.20;;;;;;2362777;53;21336;-67
2021/10/29 00:29:27;;;;;;;7.50;4.57;;;9.00;65.20;;;;;;2356955;53;20979;-68
2021/10/29 00:31:54;;;;;;;7.05;4.12;;;9.00;65.20;;;;;;2428942;53;21017;-69
2021/10/29 00:34:21;;;;;;;6.85;4.25;;;8.90;65.20;;;;;;2356364;53;21043;-68
2021/10/29 00:36:47;;;;;;;8.77;5.15;;;8.90;65.20;;;;;;2362563;53;20998;-68
2021/10/29 00:39:15;;;;;;;6.53;4.05;;;8.90;65.40;;;;;;2334123;54;20998;-68
2021/10/29 00:41:43;;;;;;;6.65;3.90;;;8.90;65.50;;;;;;2332172;53;20953;-67
2021/10/29 00:44:10;;;;;;;6.70;4.05;;;8.90;65.50;;;;;;2366083;53;21000;-67
2021/10/29 00:46:37;;;;;;;7.00;4.32;;;8.90;65.50;;;;;;2328750;53;20983;-68
2021/10/29 00:49:03;;;;;;;6.18;3.70;;;8.90;65.50;;;;;;2340035;53;20956;-68
2021/10/29 00:51:29;;;;;;;6.90;3.60;;;8.90;65.50;;;;;;2360260;53;20946;-67
2021/10/29 00:53:55;;;;;;;6.40;3.75;;;8.80;65.30;;;;;;2593885;52;21027;-68
2021/10/29 00:56:22;;;;;;;7.00;4.22;;;8.80;65.20;;;;;;2349793;53;20948;-68
2021/10/29 00:58:49;;;;;;;7.50;4.62;;;8.80;65.20;;;;;;2608313;52;21031;-68
2021/10/29 01:01:20;;;;;;;5.97;3.87;;;8.80;65.20;;;;;;2354361;53;21014;-67
2021/10/29 01:03:46;;;;;;;7.15;4.50;;;8.80;65.20;;;;;;2621579;52;20961;-69
2021/10/29 01:06:13;;;;;;;7.43;4.12;;;8.70;65.20;;;;;;2369295;53;21766;-68
2021/10/29 01:08:41;;;;;;;7.57;4.10;;;8.70;65.20;;;;;;2508714;52;20986;-69
2021/10/29 01:11:11;;;;;;;7.40;4.15;;;8.70;65.30;;;;;;2356987;53;21005;-69
2021/10/29 01:13:38;;;;;;;6.12;3.60;;;8.70;65.20;;;;;;2372694;53;20993;-68
2021/10/29 01:16:06;;;;;;;5.28;3.45;;;8.70;65.20;;;;;;2362859;53;21540;-69
2021/10/29 01:18:32;;;;;;;4.97;3.42;;;8.70;65.20;;;;;;2438108;53;21717;-67
2021/10/29 01:20:59;;;;;;;8.30;4.03;;;8.60;65.10;;;;;;2355412;53;20946;-67
2021/10/29 01:23:27;;;;;;;6.15;3.60;;;8.60;65.10;;;;;;2468465;52;21872;-69
2021/10/29 01:26:04;;;;;;;6.15;3.78;;;8.60;65.30;;;;;;2353356;53;21015;-68
2021/10/29 01:28:30;;;;;;;5.60;3.45;;;8.60;65.10;;;;;;2389585;52;20979;-68
2021/10/29 01:30:56;;;;;;;6.35;3.47;;;8.50;65.10;;;;;;2361758;53;20949;-68
2021/10/29 01:33:23;;;;;;;5.43;3.40;;;8.50;65.10;;;;;;2490645;52;21516;-68
2021/10/29 01:35:49;;;;;;;5.03;3.10;;;8.50;65.10;;;;;;2343549;53;20957;-68
2021/10/29 01:38:16;;;;;;;4.80;2.97;;;8.50;65.20;;;;;;2511976;52;20962;-68
2021/10/29 01:40:43;;;;;;;6.68;3.17;;;8.40;65.10;;;;;;2369055;53;20989;-69
2021/10/29 01:43:11;;;;;;;5.18;3.00;;;8.40;65.10;;;;;;2401408;53;21014;-69
2021/10/29 01:45:37;;;;;;;4.68;2.80;;;8.40;65.10;;;;;;2373737;52;20978;-68
2021/10/29 01:48:05;;;;;;;4.30;2.75;;;8.40;65.20;;;;;;2381185;52;20931;-67
2021/10/29 01:50:31;;;;;;;5.32;3.08;;;8.30;65.10;;;;;;2346197;52;21955;-67
2021/10/29 01:52:58;;;;;;;5.50;3.17;;;8.20;65.00;;;;;;2534466;52;21038;-69
2021/10/29 01:55:25;;;;;;;6.15;3.25;;;8.30;65.20;;;;;;2610255;52;20941;-67
2021/10/29 01:57:52;;;;;;;4.80;3.12;;;8.30;65.20;;;;;;2545775;52;20999;-67
2021/10/29 02:00:18;;;;;;;5.32;2.87;;;8.30;65.20;;;;;;2342635;53;20923;-69
2021/10/29 02:02:45;;;;;;;4.87;2.83;;;8.20;65.10;;;;;;2394313;52;20956;-68
2021/10/29 02:05:15;;;;;;;4.85;2.65;;;8.20;65.20;;;;;;2336493;53;21462;-68
2021/10/29 02:07:41;;;;;;;4.05;2.42;;;8.20;65.20;;;;;;2347813;53;20939;-68
2021/10/29 02:10:08;;;;;;;5.00;3.00;;;8.20;65.20;;;;;;2405070;52;20970;-68
2021/10/29 02:12:34;;;;;;;4.85;2.80;;;8.20;65.30;;;;;;2355212;52;20977;-68
2021/10/29 02:15:03;;;;;;;4.70;2.65;;;8.20;65.30;;;;;;2367985;53;20941;-68
2021/10/29 02:17:31;;;;;;;5.10;2.75;;;8.10;65.20;;;;;;2369527;53;20989;-68
2021/10/29 02:19:58;;;;;;;4.85;2.62;;;8.10;65.20;;;;;;2368742;53;20981;-69
2021/10/29 02:22:24;;;;;;;5.60;2.90;;;8.10;65.20;;;;;;2407659;52;21352;-68
2021/10/29 02:24:51;;;;;;;4.25;2.45;;;8.10;65.20;;;;;;2358096;53;20974;-68
2021/10/29 02:27:17;;;;;;;6.40;2.67;;;8.00;65.20;;;;;;2373232;52;20922;-68
2021/10/29 02:29:43;;;;;;;4.60;2.28;;;8.00;65.20;;;;;;2368972;53;21005;-68
2021/10/29 02:32:10;;;;;;;4.87;2.90;;;8.00;65.30;;;;;;2556653;53;20995;-68
2021/10/29 02:34:36;;;;;;;3.80;2.62;;;8.00;65.30;;;;;;2355892;53;20961;-69
2021/10/29 02:37:04;;;;;;;5.40;2.80;;;8.00;65.40;;;;;;2379758;53;21032;-69
2021/10/29 02:39:31;;;;;;;5.45;2.85;;;8.00;65.40;;;;;;2353040;53;20922;-67
2021/10/29 02:42:02;;;;;;;4.55;2.47;;;7.90;65.40;;;;;;2371399;53;20982;-68
2021/10/29 02:44:32;;;;;;;5.37;3.10;;;7.90;65.40;;;;;;2350116;53;21031;-68
2021/10/29 02:46:58;;;;;;;5.93;2.80;;;7.90;65.40;;;;;;2347910;54;20987;-68
2021/10/29 02:49:25;;;;;;;5.50;2.80;;;7.90;65.50;;;;;;2565279;52;20942;-69
2021/10/29 02:51:51;;;;;;;5.30;3.10;;;7.90;65.60;;;;;;2369560;53;20946;-68
2021/10/29 02:54:18;;;;;;;5.15;2.67;;;7.90;65.60;;;;;;2448189;52;21017;-69
2021/10/29 02:56:44;;;;;;;4.65;2.60;;;7.90;65.50;;;;;;2363509;53;21764;-67
2021/10/29 02:59:13;;;;;;;4.87;2.30;;;7.90;65.50;;;;;;2349058;53;20997;-69
2021/10/29 03:01:40;;;;;;;5.68;2.83;;;7.90;65.50;;;;;;2371252;53;20998;-67
2021/10/29 03:04:07;;;;;;;5.32;3.10;;;7.80;65.40;;;;;;2369391;53;20930;-67
2021/10/29 03:06:33;;;;;;;4.80;2.72;;;7.80;65.50;;;;;;2347709;53;20931;-67
2021/10/29 03:09:00;;;;;;;4.40;2.65;;;7.80;65.50;;;;;;2542183;53;21421;-68
2021/10/29 03:11:26;;;;;;;4.60;2.83;;;7.80;65.50;;;;;;2368827;53;20990;-69
2021/10/29 03:13:53;;;;;;;6.20;2.75;;;7.80;65.40;;;;;;2369214;53;21032;-67
2021/10/29 03:16:19;;;;;;;5.32;2.47;;;7.80;65.40;;;;;;2363877;53;21022;-67
2021/10/29 03:18:46;;;;;;;4.30;2.62;;;7.80;65.40;;;;;;2355370;53;20958;-67
2021/10/29 03:21:13;;;;;;;5.82;3.20;;;7.80;65.30;;;;;;2368964;53;21658;-69
2021/10/29 03:23:43;;;;;;;5.37;3.28;;;7.70;65.30;;;;;;2360992;53;20936;-67
2021/10/29 03:26:10;;;;;;;5.28;3.42;;;7.70;65.40;;;;;;2344894;54;21007;-67
2021/10/29 03:28:37;;;;;;;9.38;2.80;;;7.70;65.40;;;;;;2514635;52;21005;-67
2021/10/29 03:31:03;;;;;;;7.07;2.90;;;7.70;65.60;;;;;;2369660;53;20966;-67
2021/10/29 03:33:36;;;;;;;8.93;2.85;;;7.70;65.70;;;;;;2621478;52;20953;-69
2021/10/29 03:36:08;;;;;;;6.68;2.65;;;7.70;65.90;;;;;;2369562;53;20942;-67
2021/10/29 03:38:46;;;;;;;5.20;2.95;;;7.70;66.10;;;;;;2471995;52;20945;-68
2021/10/29 03:41:17;;;;;;;5.28;2.72;;;7.70;66.20;;;;;;2511734;52;20997;-68
2021/10/29 03:43:50;;;;;;;6.90;2.80;;;7.70;66.30;;;;;;2369668;53;20937;-67
2021/10/29 03:46:22;;;;;;;4.28;2.40;;;7.70;66.40;;;;;;2442522;52;20938;-68
2021/10/29 03:53:22;;;;;;;3.67;2.30;;;7.70;66.40;;;;;;2349032;54;20937;-68
2021/10/29 03:55:48;;;;;;;3.85;2.10;;;7.80;66.50;;;;;;2368292;53;20967;-69
2021/10/29 03:58:17;;;;;;;4.68;2.75;;;7.80;67.10;;;;;;2336347;53;21778;-69
2021/10/29 04:00:46;;;;;;;4.93;2.90;;;7.80;66.50;;;;;;2369998;53;21060;-68
2021/10/29 04:03:14;;;;;;;5.75;2.62;;;7.80;66.60;;;;;;2370018;53;20910;-68
2021/10/29 04:05:41;;;;;;;6.35;3.10;;;7.80;66.60;;;;;;2465204;52;21597;-68
2021/10/29 04:08:10;;;;;;;5.03;2.70;;;7.90;66.70;;;;;;2350072;53;21743;-68
2021/10/29 04:10:41;;;;;;;4.82;3.03;;;7.90;66.70;;;;;;2350031;54;20950;-68
2021/10/29 04:13:10;;;;;;;7.43;3.25;;;7.90;66.80;;;;;;2342913;54;21897;-68
2021/10/29 04:15:39;;;;;;;5.47;3.53;;;7.90;66.80;;;;;;2339269;54;20942;-68
2021/10/29 04:18:07;;;;;;;5.37;2.90;;;7.90;66.70;;;;;;2348261;54;20978;-67
2021/10/29 04:20:33;;;;;;;6.30;3.17;;;7.90;66.70;;;;;;2369020;53;20981;-67
2021/10/29 04:22:59;;;;;;;7.28;3.15;;;8.00;66.80;;;;;;2351130;53;21594;-67
2021/10/29 04:25:25;;;;;;;5.15;2.83;;;8.00;66.80;;;;;;2369607;53;21045;-68
2021/10/29 04:28:11;;;;;;;5.28;3.30;;;8.00;66.90;;;;;;2368757;53;20989;-67
2021/10/29 04:31:26;;;;;;;5.80;2.97;;;8.00;66.90;;;;;;2372481;53;21842;-69
2021/10/29 04:33:52;;;;;;;5.32;3.08;;;8.10;67.00;;;;;;2428177;52;21566;-69
2021/10/29 04:36:20;;;;;;;5.20;2.92;;;8.00;67.00;;;;;;2343043;53;20987;-67
2021/10/29 04:38:47;;;;;;;12.95;3.90;;;8.10;67.10;;;;;;2348729;53;21002;-69
2021/10/29 04:41:14;;;;;;;11.65;3.50;;;8.20;67.20;;;;;;2371422;53;21029;-68
2021/10/29 04:43:41;;;;;;;10.48;4.95;;;8.10;67.10;;;;;;2338308;54;21428;-68
2021/10/29 04:46:07;;;;;;;9.15;4.75;;;8.10;67.00;;;;;;2410257;52;21944;-68
2021/10/29 04:48:38;;;;;;;8.90;4.57;;;8.20;67.10;;;;;;2371315;53;20958;-69
2021/10/29 04:51:05;;;;;;;7.90;4.40;;;8.20;67.10;;;;;;2371380;53;20942;-69
2021/10/29 04:53:31;;;;;;;7.93;4.35;;;8.20;66.90;;;;;;2599605;52;21082;-67
2021/10/29 04:55:57;;;;;;;6.75;3.42;;;8.20;66.80;;;;;;2367494;52;21763;-69
2021/10/29 04:58:24;;;;;;;5.75;3.10;;;8.20;66.80;;;;;;2361687;53;21395;-67
2021/10/29 05:00:51;;;;;;;5.57;3.05;;;8.20;66.60;;;;;;2622494;52;21919;-67
2021/10/29 05:03:17;;;;;;;9.25;3.10;;;8.20;66.50;;;;;;2349743;53;21024;-67
2021/10/29 05:05:43;;;;;;;5.43;3.00;;;8.20;66.40;;;;;;2354862;53;20967;-68
2021/10/29 05:08:10;;;;;;;10.45;3.37;;;8.20;66.40;;;;;;2364155;53;21513;-68
2021/10/29 05:10:37;;;;;;;5.25;3.03;;;8.20;66.30;;;;;;2365773;53;21914;-69
2021/10/29 05:13:03;;;;;;;6.32;3.67;;;8.10;66.20;;;;;;2339968;53;21518;-67
2021/10/29 05:15:30;;;;;;;5.65;3.15;;;8.10;66.10;;;;;;2371258;53;21470;-67
2021/10/29 05:17:56;;;;;;;5.80;3.37;;;8.10;66.00;;;;;;2370523;53;20949;-67
2021/10/29 05:20:24;;;;;;;5.32;2.78;;;8.10;65.90;;;;;;2371523;53;21006;-67
2021/10/29 05:22:52;;;;;;;4.95;2.95;;;8.10;65.80;;;;;;2369741;53;21051;-69
2021/10/29 05:25:20;;;;;;;5.68;3.05;;;8.00;65.60;;;;;;2335047;54;20938;-67
2021/10/29 05:27:46;;;;;;;4.35;2.75;;;8.00;65.60;;;;;;2370967;53;20953;-68
2021/10/29 05:30:13;;;;;;;6.45;3.80;;;7.90;65.50;;;;;;2371745;53;21081;-67
2021/10/29 05:32:39;;;;;;;6.95;3.97;;;7.90;65.50;;;;;;2363026;53;20923;-68
2021/10/29 05:35:06;;;;;;;5.75;3.67;;;7.90;65.60;;;;;;2350193;53;20923;-68
2021/10/29 05:37:33;;;;;;;6.03;3.87;;;7.80;65.60;;;;;;2370874;53;20993;-67
2021/10/29 05:39:59;;;;;;;5.62;3.45;;;7.80;65.70;;;;;;2347355;53;20948;-67
2021/10/29 05:42:28;;;;;;;5.68;3.42;;;7.80;65.70;;;;;;2507917;53;20991;-67
2021/10/29 05:44:55;;;;;;;6.93;3.83;;;7.70;65.70;;;;;;2492312;53;21042;-67
2021/10/29 05:47:21;;;;;;;5.05;3.12;;;7.70;65.70;;;;;;2371720;53;20922;-67
2021/10/29 05:49:48;;;;;;;5.93;3.72;;;7.70;65.80;;;;;;2395456;52;21462;-67
2021/10/29 05:52:21;;;;;;;5.40;3.65;;;7.70;65.80;;;;;;2360527;53;21476;-69
2021/10/29 05:57:51;;;;;;;6.07;3.60;;;7.60;65.70;;;;;;2371143;53;21033;-67
2021/10/29 06:00:22;;;;;;;7.32;3.80;;;7.60;65.70;;;;;;2360953;53;21011;-68
2021/10/29 06:02:49;;;;;;;5.32;3.35;;;7.60;65.70;;;;;;2348282;54;20958;-68
2021/10/29 06:05:16;;;;;;;6.90;3.42;;;7.50;65.60;;;;;;2371813;53;21005;-67
2021/10/29 06:07:42;;;;;;;5.68;3.05;;;7.50;65.70;;;;;;2416810;53;20981;-67
2021/10/29 06:10:13;;;;;;;6.37;3.50;;;7.50;65.70;;;;;;2340572;54;21097;-67
2021/10/29 06:12:43;;;;;;;11.75;3.30;;;7.50;65.70;;;;;;2375394;53;20947;-67
2021/10/29 06:15:10;;;;;;;5.32;3.25;;;7.40;65.70;;;;;;2348156;54;20927;-67
2021/10/29 06:17:37;;;;;;;5.57;3.03;;;7.40;65.70;;;;;;2370817;53;20941;-67
2021/10/29 06:20:03;;;;;;;5.50;3.20;;;7.40;65.70;;;;;;2371043;53;20962;-68
2021/10/29 06:22:35;;;;;;;5.65;3.22;;;7.40;65.80;;;;;;2351737;54;21032;-67
2021/10/29 06:25:09;;;;;;;6.23;3.50;;;7.30;65.80;;;;;;2370408;53;21090;-67
2021/10/29 06:30:22;;;;;;;7.20;3.60;;;7.30;65.90;;;;;;2346364;53;20986;-67
2021/10/29 06:32:48;;;;;;;7.87;3.83;;;7.30;65.90;;;;;;2340128;53;21016;-68
2021/10/29 06:35:15;;;;;;;8.10;3.20;;;7.30;65.90;;;;;;2347122;53;20937;-67
2021/10/29 06:37:44;;;;;;;6.35;2.92;;;7.30;66.10;;;;;;2343241;53;20940;-67
2021/10/29 06:40:14;;;;;;;10.93;4.07;;;7.30;66.10;;;;;;2343071;53;21016;-67
2021/10/29 06:42:41;;;;;;;14.80;5.43;;;7.20;66.10;;;;;;2348497;53;20997;-67
2021/10/29 06:45:36;;;;;;;11.70;5.85;;;7.20;66.10;;;;;;2371913;53;21070;-68
2021/10/29 07:11:36;;;;;;;10.70;5.20;;;7.20;66.10;;;;;;2363627;53;20585;-68
2021/10/29 07:43:08;;;;;;;9.18;5.07;;;7.10;67.00;;;;;;2394917;52;22033;-68
2021/10/29 07:45:35;;;;;;;7.68;4.72;;;7.30;67.20;;;;;;2324257;54;21433;-67
2021/10/29 07:48:01;;;;;;;8.77;5.15;;;7.30;67.30;;;;;;2326679;54;21009;-67
2021/10/29 07:50:28;;;;;;;7.90;4.93;;;7.40;67.50;;;;;;2317195;54;20956;-68
2021/10/29 07:52:57;;;;;;;9.98;5.12;;;7.40;67.50;;;;;;2357100;53;20994;-67
2021/10/29 07:55:24;;;;;;;8.05;4.93;;;7.50;67.60;;;;;;2329574;54;20992;-68
2021/10/29 07:57:51;;;;;;;7.62;4.62;;;7.50;67.70;;;;;;2321711;54;21413;-68
2021/10/29 08:00:18;;;;;;;7.22;4.57;;;7.60;67.80;;;;;;2347034;53;21075;-67
2021/10/29 08:02:50;;;;;;;7.65;4.95;;;7.60;67.90;;;;;;2336164;54;21005;-67
2021/10/29 08:05:17;;;;;;;7.78;4.55;;;7.70;68.00;;;;;;2332175;54;21469;-68
2021/10/29 08:07:44;;;;;;;7.18;4.72;;;7.70;68.10;;;;;;2336973;53;22007;-68
2021/10/29 08:10:11;;;;;;;6.60;4.40;;;7.70;68.20;;;;;;2336235;54;20986;-68
2021/10/29 08:12:38;;;;;;;7.47;5.10;;;7.80;68.40;;;;;;2357864;53;20939;-68
2021/10/29 08:15:06;;;;;;;7.50;4.85;;;7.90;68.40;;;;;;2343429;53;20989;-69
2021/10/29 08:17:33;;;;;;;7.87;4.85;;;8.00;68.40;;;;;;2375740;53;21095;-68
2021/10/29 08:20:04;;;;;;;8.30;5.68;;;8.00;68.30;;;;;;2355052;53;21023;-67
2021/10/29 08:22:32;;;;;;;7.87;4.78;;;8.00;68.40;;;;;;2410759;52;21051;-68
2021/10/29 08:24:59;;;;;;;6.97;4.62;;;8.10;68.60;;;;;;2352031;53;20950;-68
2021/10/29 08:27:25;;;;;;;11.73;5.55;;;8.20;68.90;;;;;;2357847;53;21729;-68
2021/10/29 08:29:54;;;;;;;6.37;4.30;;;8.30;69.20;;;;;;2347852;53;20966;-70
2021/10/29 08:32:22;;;;;;;7.10;4.97;;;8.40;69.40;;;;;;2412689;52;20886;-69
2021/10/29 08:34:51;;;;;;;7.80;5.70;;;8.50;69.50;;;;;;2336323;53;20990;-68
2021/10/29 08:37:17;;;;;;;8.10;4.75;;;8.50;69.40;;;;;;2365285;53;21857;-68
2021/10/29 08:39:44;;;;;;;7.37;5.00;;;8.70;69.50;;;;;;2347773;53;20934;-68
2021/10/29 08:42:10;;;;;;;7.82;4.97;;;8.70;69.30;;;;;;2361719;53;21004;-69
2021/10/29 08:44:37;;;;;;;9.50;5.12;;;8.80;69.30;;;;;;2341361;53;20969;-67
2021/10/29 08:47:04;;;;;;;10.35;6.30;;;8.90;69.30;;;;;;2550008;52;20969;-68
2021/10/29 08:49:33;;;;;;;9.05;6.07;;;9.00;69.40;;;;;;2337780;53;20921;-69
2021/10/29 08:52:03;;;;;;;10.10;5.62;;;9.00;69.40;;;;;;2343448;54;20957;-68
2021/10/29 08:54:30;;;;;;;8.73;5.53;;;9.10;69.50;;;;;;2362410;53;21085;-70
2021/10/29 08:56:58;;;;;;;9.60;6.32;;;9.20;69.60;;;;;;2301905;53;1318243;-68
2021/10/29 08:59:30;;;;;;;9.20;6.40;;;9.30;69.70;;;;;;2346641;53;21006;-68
2021/10/29 09:02:00;;;;;;;;;;;9.40;69.60;;;;;;2349050;52;20960;-68
2021/10/29 09:10:21;;;;;;;5.75;4.07;;;9.60;69.60;;;;;;2358649;52;20944;-69
2021/10/29 09:33:13;;;;;;;6.37;3.95;;;10.30;68.20;;;;;;2318994;54;20970;-69
2021/10/29 09:35:41;;;;;;;6.57;4.53;;;10.40;68.70;;;;;;2338449;53;20993;-68
2021/10/29 09:38:09;;;;;;;6.50;4.25;;;10.50;69.10;;;;;;2400893;53;21012;-70
2021/10/29 09:40:38;;;;;;;6.68;4.80;;;10.60;69.40;;;;;;2399844;54;21485;-68
2021/10/29 09:43:16;;;;;;;5.97;4.30;;;10.70;69.90;;;;;;2439796;53;20995;-70
2021/10/29 09:45:50;;;;;;;5.55;4.50;;;10.90;70.20;;;;;;2328498;53;21083;-69
2021/10/29 09:49:05;;;;;;;6.18;4.37;;;11.10;70.50;;;;;;2391464;52;21061;-70
2021/10/29 09:51:47;;;;;;;6.15;4.60;;;11.20;70.50;;;;;;2339423;53;21036;-70
2021/10/29 09:54:16;;;;;;;7.18;4.62;;;11.40;70.50;;;;;;2356633;53;21777;-70
2021/10/29 09:56:46;;;;;;;7.43;5.40;;;11.60;70.60;;;;;;2348623;53;20945;-68
2021/10/29 09:59:13;;;;;;;7.95;5.53;;;11.80;70.80;;;;;;2413257;53;21099;-69
2021/10/29 10:01:40;;;;;;;8.52;6.20;;;11.90;70.80;;;;;;2588040;52;20979;-69
2021/10/29 10:04:06;;;;;;;8.52;5.78;;;12.00;70.70;;;;;;2326848;53;20919;-69
2021/10/29 10:06:50;;;;;;;8.02;5.43;;;12.20;70.80;;;;;;2520187;52;20990;-68
2021/10/29 10:09:17;;;;;;;7.10;4.82;;;12.40;70.70;;;;;;2395831;52;20958;-70
2021/10/29 10:11:45;;;;;;;7.80;5.72;;;12.50;71.00;;;;;;2346963;53;21601;-70
2021/10/29 10:14:11;;;;;;;8.13;5.72;;;12.70;71.20;;;;;;2566972;53;21009;-71
2021/10/29 10:16:41;;;;;;;8.65;5.75;;;12.80;71.30;;;;;;2338679;53;20985;-71
2021/10/29 10:19:08;;;;;;;7.55;4.95;;;13.00;71.30;;;;;;2340289;53;20969;-68
2021/10/29 10:21:40;;;;;;;9.93;5.20;;;13.10;71.20;;;;;;2350824;53;21001;-68
2021/10/29 10:24:10;;;;;;;7.57;5.15;;;13.30;71.20;;;;;;2399823;53;21675;-69
2021/10/29 10:26:57;;;;;;;6.65;4.70;;;13.40;71.10;;;;;;2363466;53;20994;-70
2021/10/29 10:29:33;;;;;;;9.63;6.18;;;13.60;71.30;;;;;;2346505;53;20977;-71
2021/10/29 10:50:13;;;;;;;8.25;5.53;;;14.50;69.60;;;;;;2385897;52;20933;-69
2021/10/29 10:53:48;;;;;;;8.13;5.97;;;14.70;69.80;;;;;;2328714;54;20996;-70
2021/10/29 10:56:44;;;;;;;8.48;5.47;;;14.80;69.10;;;;;;2437715;52;21048;-71
2021/10/29 11:03:47;;;;;;;9.55;6.40;;;15.00;68.90;;;;;;2340537;53;20993;-72
2021/10/29 11:11:26;;;;;;;9.27;5.65;;;15.20;67.90;;;;;;2378643;52;21013;-70
2021/10/29 11:13:59;;;;;;;9.05;6.10;;;15.30;68.00;;;;;;2384396;52;20964;-69
2021/10/29 11:18:24;;;;;;;7.97;5.80;;;15.40;68.70;;;;;;2336853;53;20979;-70
2021/10/29 11:20:54;;;;;;;10.68;6.25;;;15.50;68.10;;;;;;2351259;53;21557;-70
2021/10/29 11:23:25;;;;;;;11.85;6.78;;;15.50;68.80;;;;;;2445112;52;21531;-70
2021/10/29 11:26:02;;;;;;;10.07;6.78;;;15.60;68.50;;;;;;2331896;53;21084;-69
2021/10/29 11:28:33;;;;;;;10.23;6.50;;;15.60;68.20;;;;;;2361824;53;20979;-71
2021/10/29 11:31:01;;;;;;;11.48;8.80;;;15.60;67.90;;;;;;2352927;53;21466;-70
2021/10/29 11:33:27;;;;;;;10.18;7.62;;;15.70;68.20;;;;;;2393835;53;21460;-70
2021/10/29 11:36:01;;;;;;;12.07;7.95;;;15.70;68.20;;;;;;2344592;53;20937;-68
2021/10/29 11:38:31;;;;;;;14.10;10.65;;;15.70;68.00;;;;;;2344946;53;21023;-71
2021/10/29 11:40:59;;;;;;;11.88;8.10;;;15.80;68.10;;;;;;2341493;53;21029;-71
2021/10/29 11:43:27;;;;;;;12.50;8.52;;;15.80;68.30;;;;;;2467139;53;20934;-73
2021/10/29 11:46:04;;;;;;;10.82;7.30;;;15.90;68.20;;;;;;2344518;53;20973;-72
2021/10/29 11:48:32;;;;;;;9.05;6.55;;;15.90;68.30;;;;;;2349404;53;20962;-70
2021/10/29 11:51:16;;;;;;;11.23;7.22;;;16.00;68.40;;;;;;2348724;53;21046;-70
2021/10/29 11:53:50;;;;;;;11.30;8.25;;;16.10;68.40;;;;;;2338260;52;21009;-73
2021/10/29 12:00:06;;;;;;;9.90;6.32;;;16.20;68.40;;;;;;2339764;53;20968;-73
2021/10/29 12:08:01;;;;;;;11.27;7.87;;;16.40;68.10;;;;;;2368205;53;21072;-73
2021/10/29 12:10:29;;;;;;;10.60;7.22;;;16.50;68.20;;;;;;2430245;53;20943;-72
2021/10/29 12:12:57;;;;;;;8.95;6.20;;;16.60;68.10;;;;;;2339516;53;20957;-71
2021/10/29 12:15:25;;;;;;;9.13;6.68;;;16.60;68.00;;;;;;2377665;53;21036;-70
2021/10/29 12:18:04;;;;;;;10.98;7.32;;;16.70;68.00;;;;;;2349361;53;21568;-72
2021/10/29 12:20:43;;;;;;;10.63;6.85;;;16.80;67.90;;;;;;2318277;55;20949;-73
2021/10/29 12:23:19;;;;;;;9.75;6.55;;;16.80;67.90;;;;;;2390032;53;21061;-71
2021/10/29 12:28:49;;;;;;;9.13;6.07;;;17.00;68.40;;;;;;2333713;53;21207;-72
2021/10/29 12:31:45;;;;;;;11.77;6.82;;;17.10;68.30;;;;;;2352182;53;20982;-71
2021/10/29 12:34:42;;;;;;;8.25;5.95;;;17.20;68.30;;;;;;2327103;54;21724;-72
2021/10/29 12:54:37;;;;;;;8.25;5.82;;;18.10;68.10;;;;;;2331006;54;21012;-72
2021/10/29 13:02:33;;;;;;;7.37;5.47;;;18.40;68.30;;;;;;2353296;53;21496;-76
2021/10/29 13:05:00;;;;;;;8.75;6.12;;;18.60;68.30;;;;;;2323269;54;21783;-72
2021/10/29 13:07:30;;;;;;;8.25;5.18;;;18.60;68.20;;;;;;2324856;54;20988;-73
2021/10/29 13:10:09;;;;;;;7.37;5.53;;;18.80;68.40;;;;;;2317715;54;21024;-71
2021/10/29 13:12:57;;;;;;;12.85;7.05;;;18.90;67.70;;;;;;2321178;54;20989;-75
2021/10/29 13:15:27;;;;;;;8.00;5.40;;;19.00;68.40;;;;;;2354701;53;21509;-77
2021/10/29 13:18:01;;;;;;;8.02;6.05;;;19.20;68.30;;;;;;2329891;53;21013;-72
2021/10/29 13:20:50;;;;;;;9.40;6.68;;;19.30;67.90;;;;;;2347613;53;21075;-72
2021/10/29 13:35:50;;;;;;;8.38;5.40;;;19.70;66.70;;;;;;2333385;54;20962;-71
2021/10/29 13:50:30;;;;;;;10.13;5.93;;;19.90;67.50;;;;;;2369766;52;21578;-71
2021/10/29 13:53:11;;;;;;;5.35;3.62;;;20.00;66.70;;;;;;2350944;53;21701;-72
2021/10/29 13:55:54;;;;;;;5.93;4.18;;;20.40;67.20;;;;;;2420295;53;21009;-72
2021/10/29 14:35:46;;;;;;;6.05;4.18;;;20.80;64.50;;;;;;2370940;53;20942;-69
2021/10/29 14:39:05;;;;;;;8.40;4.87;;;20.90;64.70;;;;;;2354351;53;20985;-71
2021/10/29 14:41:40;;;;;;;6.35;4.20;;;20.90;64.50;;;;;;2343844;54;21999;-74
2021/10/29 14:44:19;;;;;;;7.40;4.80;;;20.90;64.30;;;;;;2552051;53;20956;-77
2021/10/29 14:47:02;;;;;;;7.30;4.53;;;20.90;64.20;;;;;;2318062;54;21847;-71
2021/10/29 14:49:59;;;;;;;6.37;4.18;;;20.80;64.00;;;;;;2318667;53;20924;-71
2021/10/29 15:02:41;;;;;;;7.30;3.95;;;20.60;63.60;;;;;;2347026;53;21023;-72
2021/10/29 15:05:40;;;;;;;6.90;3.97;;;20.40;63.50;;;;;;2332588;53;21041;-69
2021/10/29 15:18:01;;;;;;;10.35;5.72;;;20.20;63.60;;;;;;2342713;53;21549;-69
2021/10/29 15:26:53;;;;;;;5.18;2.95;;;19.90;63.40;;;;;;2365971;53;20977;-68
2021/10/29 15:45:37;;;;;;;7.87;4.47;;;18.40;64.00;;;;;;2281980;54;21128;-70
2021/10/29 15:48:09;;;;;;;6.97;4.30;;;18.30;64.00;;;;;;2290963;54;20939;-70
2021/10/29 15:50:36;;;;;;;6.70;4.15;;;18.30;63.80;;;;;;2260263;54;20994;-72
2021/10/29 15:53:07;;;;;;;5.55;3.50;;;18.30;63.60;;;;;;2266409;54;20982;-74
2021/10/29 15:55:45;;;;;;;6.37;3.93;;;18.20;63.30;;;;;;2266412;55;20961;-71
2021/10/29 16:20:19;;;;;;;4.35;2.55;;;17.50;63.10;;;;;;2260843;55;21031;-70
2021/10/29 16:22:46;;;;;;;4.50;2.75;;;17.30;62.90;;;;;;2289488;54;21046;-72
2021/10/29 16:25:18;;;;;;;5.35;3.22;;;17.20;62.90;;;;;;2288553;54;21035;-70
2021/10/29 16:27:59;;;;;;;4.30;2.83;;;17.10;62.70;;;;;;2383635;53;21053;-69
2021/10/29 16:30:37;;;;;;;4.28;2.50;;;17.00;62.70;;;;;;2286564;54;20933;-70
2021/10/29 16:33:18;;;;;;;6.10;2.87;;;16.90;62.70;;;;;;2280008;54;21138;-71
2021/10/29 16:35:46;;;;;;;5.78;3.40;;;16.80;62.60;;;;;;2319210;53;20921;-72
2021/10/29 16:38:15;;;;;;;4.30;2.40;;;16.70;62.40;;;;;;2317936;54;20935;-71
2021/10/29 16:40:42;;;;;;;4.60;2.65;;;16.60;62.40;;;;;;2291507;55;21010;-70
2021/10/29 16:43:10;;;;;;;6.05;3.00;;;16.50;62.40;;;;;;2301036;54;21039;-70
2021/10/29 16:45:41;;;;;;;5.12;2.70;;;16.40;62.40;;;;;;2318269;54;21041;-70
2021/10/29 16:48:08;;;;;;;5.65;3.42;;;16.30;62.50;;;;;;2390843;53;21019;-70
2021/10/29 16:50:35;;;;;;;10.43;3.70;;;16.20;62.50;;;;;;2288863;55;21065;-69
2021/10/29 16:53:01;;;;;;;17.37;8.93;;;16.10;62.50;;;;;;2442334;53;21113;-70
2021/10/29 16:55:29;;;;;;;26.67;13.77;;;16.00;62.40;;;;;;2313648;54;20974;-71
2021/10/29 16:57:58;;;;;;;21.45;12.43;;;15.90;62.30;;;;;;2276675;54;21010;-73
2021/10/29 17:00:27;;;;;;;17.05;9.50;;;15.80;62.30;;;;;;2283719;54;21038;-69
2021/10/29 17:02:53;;;;;;;13.40;8.38;;;15.70;62.20;;;;;;2299317;54;21925;-72
2021/10/29 17:05:24;;;;;;;14.15;8.15;;;15.60;62.30;;;;;;2348426;53;21017;-71
2021/10/29 17:07:50;;;;;;;10.50;6.12;;;15.50;62.40;;;;;;2285788;54;20997;-74
2021/10/29 17:10:19;;;;;;;10.10;6.55;;;15.40;62.60;;;;;;2370941;54;21502;-71
2021/10/29 17:12:45;;;;;;;11.00;6.10;;;15.30;62.60;;;;;;2276679;55;21030;-74
2021/10/29 17:15:13;;;;;;;8.93;5.00;;;15.20;62.60;;;;;;2279718;55;20974;-71
2021/10/29 17:17:39;;;;;;;9.25;5.43;;;15.10;62.60;;;;;;2306413;55;21014;-70
2021/10/29 17:20:08;;;;;;;9.13;4.95;;;15.00;62.60;;;;;;2314304;55;20933;-73
2021/10/29 17:22:34;;;;;;;7.22;4.68;;;14.90;62.50;;;;;;2313006;55;21494;-69
2021/10/29 17:25:01;;;;;;;7.03;4.70;;;14.90;62.60;;;;;;2294905;54;20943;-69
2021/10/29 17:27:29;;;;;;;7.15;4.85;;;14.80;62.60;;;;;;2304884;54;20953;-74
2021/10/29 17:29:55;;;;;;;8.43;4.60;;;14.70;62.80;;;;;;2312789;54;21716;-73
2021/10/29 17:32:21;;;;;;;9.63;4.60;;;14.60;62.70;;;;;;2299713;54;20965;-70
2021/10/29 17:34:48;;;;;;;6.85;4.68;;;14.50;62.60;;;;;;2296575;54;20980;-72
2021/10/29 17:37:18;;;;;;;9.55;4.80;;;14.50;62.60;;;;;;2319440;54;21045;-74
2021/10/29 17:39:54;;;;;;;7.03;4.65;;;14.40;62.70;;;;;;2355175;53;20967;-71
2021/10/29 17:42:20;;;;;;;9.00;5.03;;;14.30;62.70;;;;;;2317656;54;21032;-72
2021/10/29 17:44:47;;;;;;;10.13;5.40;;;14.20;62.80;;;;;;2344975;54;21003;-73
2021/10/29 17:47:14;;;;;;;7.28;4.68;;;14.20;63.10;;;;;;2319529;55;20983;-71
2021/10/29 17:49:42;;;;;;;8.27;4.45;;;14.10;63.00;;;;;;2304774;54;21067;-70